sensor_id;sensor_type;location;lat;lon;timestamp;pressure;altitude;pressure_sealevel;temperature;humidity
65659;BME280;60181;53.258;6.932;2022-09-16T00:04:01;100921.53;;;19.78;56.83
65659;BME280;60181;53.258;6.932;2022-09-16T00:08:29;100915.99;;;19.77;56.75
65659;BME280;60181;53.258;6.932;2022-09-16T00:12:57;100912.10;;;19.76;56.88
65659;BME280;60181;53.258;6.932;2022-09-16T00:17:25;100909.52;;;19.75;56.85
65659;BME280;60181;53.258;6.932;2022-09-16T00:21:53;100908.22;;;19.74;56.82
65659;BME280;60181;53.258;6.932;2022-09-16T00:26:21;100907.56;;;19.73;56.79
65659;BME280;60181;53.258;6.932;2022-09-16T00:30:49;100909.63;;;19.71;56.88
65659;BME280;60181;53.258;6.932;2022-09-16T00:35:17;100911.89;;;19.71;56.95
65659;BME280;60181;53.258;6.932;2022-09-16T00:39:48;100914.70;;;19.70;56.92
65659;BME280;60181;53.258;6.932;2022-09-16T00:48:41;100916.99;;;19.68;56.83
65659;BME280;60181;53.258;6.932;2022-09-16T00:53:15;100917.55;;;19.68;56.86
65659;BME280;60181;53.258;6.932;2022-09-16T00:57:37;100915.40;;;19.67;56.94
65659;BME280;60181;53.258;6.932;2022-09-16T01:02:06;100912.59;;;19.67;56.90
65659;BME280;60181;53.258;6.932;2022-09-16T01:06:34;100908.83;;;19.67;57.07
65659;BME280;60181;53.258;6.932;2022-09-16T01:11:01;100905.78;;;19.66;56.88
65659;BME280;60181;53.258;6.932;2022-09-16T01:24:32;100899.81;;;19.64;57.35
65659;BME280;60181;53.258;6.932;2022-09-16T01:29:07;100907.44;;;19.64;57.01
65659;BME280;60181;53.258;6.932;2022-09-16T01:33:36;100913.28;;;19.65;57.06
65659;BME280;60181;53.258;6.932;2022-09-16T01:38:15;100917.76;;;19.65;56.61
65659;BME280;60181;53.258;6.932;2022-09-16T01:42:19;100918.50;;;19.64;56.47
65659;BME280;60181;53.258;6.932;2022-09-16T01:47:09;100918.48;;;19.64;56.71
65659;BME280;60181;53.258;6.932;2022-09-16T01:51:15;100917.33;;;19.64;56.70
65659;BME280;60181;53.258;6.932;2022-09-16T01:55:47;100915.75;;;19.63;56.68
65659;BME280;60181;53.258;6.932;2022-09-16T02:00:09;100913.78;;;19.63;56.47
65659;BME280;60181;53.258;6.932;2022-09-16T02:04:39;100911.13;;;19.62;56.46
65659;BME280;60181;53.258;6.932;2022-09-16T02:09:08;100907.39;;;19.61;56.44
65659;BME280;60181;53.258;6.932;2022-09-16T02:13:34;100904.90;;;19.60;56.58
65659;BME280;60181;53.258;6.932;2022-09-16T02:18:05;100906.75;;;19.59;56.50
65659;BME280;60181;53.258;6.932;2022-09-16T02:22:33;100908.08;;;19.58;56.47
65659;BME280;60181;53.258;6.932;2022-09-16T02:26:58;100907.33;;;19.58;56.31
65659;BME280;60181;53.258;6.932;2022-09-16T02:31:27;100904.91;;;19.57;56.46
65659;BME280;60181;53.258;6.932;2022-09-16T02:35:53;100903.44;;;19.56;56.37
65659;BME280;60181;53.258;6.932;2022-09-16T02:40:23;100900.28;;;19.55;56.22
65659;BME280;60181;53.258;6.932;2022-09-16T02:44:49;100897.97;;;19.55;56.21
65659;BME280;60181;53.258;6.932;2022-09-16T02:49:27;100895.23;;;19.53;56.27
65659;BME280;60181;53.258;6.932;2022-09-16T02:53:46;100893.83;;;19.52;56.16
65659;BME280;60181;53.258;6.932;2022-09-16T02:58:13;100892.77;;;19.52;56.64
65659;BME280;60181;53.258;6.932;2022-09-16T03:02:41;100894.26;;;19.52;56.62
65659;BME280;60181;53.258;6.932;2022-09-16T03:07:09;100895.48;;;19.52;56.49
65659;BME280;60181;53.258;6.932;2022-09-16T03:25:09;100892.33;;;19.50;56.21
65659;BME280;60181;53.258;6.932;2022-09-16T03:29:32;100889.38;;;19.49;56.08
65659;BME280;60181;53.258;6.932;2022-09-16T03:34:07;100888.06;;;19.48;56.34
65659;BME280;60181;53.258;6.932;2022-09-16T03:38:25;100887.31;;;19.47;56.12
65659;BME280;60181;53.258;6.932;2022-09-16T03:42:53;100887.55;;;19.46;56.26
65659;BME280;60181;53.258;6.932;2022-09-16T03:47:21;100886.39;;;19.45;55.96
65659;BME280;60181;53.258;6.932;2022-09-16T03:51:49;100885.52;;;19.45;55.98
65659;BME280;60181;53.258;6.932;2022-09-16T03:56:17;100883.69;;;19.44;55.97
65659;BME280;60181;53.258;6.932;2022-09-16T04:00:48;100881.09;;;19.42;55.86
65659;BME280;60181;53.258;6.932;2022-09-16T04:05:13;100879.80;;;19.41;56.11
65659;BME280;60181;53.258;6.932;2022-09-16T04:09:41;100881.05;;;19.41;55.80
65659;BME280;60181;53.258;6.932;2022-09-16T04:14:09;100880.30;;;19.40;55.88
65659;BME280;60181;53.258;6.932;2022-09-16T04:18:37;100878.06;;;19.39;56.04
65659;BME280;60181;53.258;6.932;2022-09-16T04:23:05;100876.57;;;19.38;55.88
65659;BME280;60181;53.258;6.932;2022-09-16T04:27:33;100875.75;;;19.37;55.73
65659;BME280;60181;53.258;6.932;2022-09-16T04:32:01;100875.27;;;19.37;55.79
65659;BME280;60181;53.258;6.932;2022-09-16T04:36:29;100874.34;;;19.37;55.64
65659;BME280;60181;53.258;6.932;2022-09-16T04:41:03;100870.18;;;19.39;56.32
65659;BME280;60181;53.258;6.932;2022-09-16T04:45:25;100867.47;;;19.42;56.89
65659;BME280;60181;53.258;6.932;2022-09-16T04:49:53;100863.81;;;19.44;57.35
65659;BME280;60181;53.258;6.932;2022-09-16T04:54:21;100861.06;;;19.46;57.37
65659;BME280;60181;53.258;6.932;2022-09-16T04:58:49;100859.88;;;19.48;57.22
65659;BME280;60181;53.258;6.932;2022-09-16T05:03:17;100860.88;;;19.49;57.21
65659;BME280;60181;53.258;6.932;2022-09-16T05:07:45;100863.45;;;19.50;57.39
65659;BME280;60181;53.258;6.932;2022-09-16T05:12:13;100865.26;;;19.50;57.31
65659;BME280;60181;53.258;6.932;2022-09-16T05:16:41;100866.69;;;19.50;57.43
65659;BME280;60181;53.258;6.932;2022-09-16T05:21:10;100866.51;;;19.51;57.37
65659;BME280;60181;53.258;6.932;2022-09-16T05:25:36;100865.42;;;19.51;57.36
65659;BME280;60181;53.258;6.932;2022-09-16T05:30:05;100864.59;;;19.52;57.36
65659;BME280;60181;53.258;6.932;2022-09-16T05:34:33;100863.67;;;19.52;57.40
65659;BME280;60181;53.258;6.932;2022-09-16T05:39:00;100864.42;;;19.52;57.52
65659;BME280;60181;53.258;6.932;2022-09-16T05:43:29;100869.57;;;19.51;57.96
65659;BME280;60181;53.258;6.932;2022-09-16T05:47:56;100874.98;;;19.51;57.69
65659;BME280;60181;53.258;6.932;2022-09-16T05:52:25;100877.48;;;19.50;57.77
65659;BME280;60181;53.258;6.932;2022-09-16T05:56:52;100877.64;;;19.50;57.82
65659;BME280;60181;53.258;6.932;2022-09-16T06:01:22;100877.33;;;19.49;57.84
65659;BME280;60181;53.258;6.932;2022-09-16T06:05:48;100877.48;;;19.49;57.78
65659;BME280;60181;53.258;6.932;2022-09-16T06:10:16;100879.47;;;19.49;57.78
65659;BME280;60181;53.258;6.932;2022-09-16T06:14:44;100879.14;;;19.49;57.78
65659;BME280;60181;53.258;6.932;2022-09-16T06:19:14;100878.00;;;19.48;57.93
65659;BME280;60181;53.258;6.932;2022-09-16T06:23:40;100874.68;;;19.48;58.29
65659;BME280;60181;53.258;6.932;2022-09-16T06:28:08;100872.44;;;19.49;58.32
65659;BME280;60181;53.258;6.932;2022-09-16T06:32:36;100869.19;;;19.49;58.19
65659;BME280;60181;53.258;6.932;2022-09-16T06:37:04;100866.44;;;19.50;58.25
65659;BME280;60181;53.258;6.932;2022-09-16T06:41:33;100864.20;;;19.49;58.29
65659;BME280;60181;53.258;6.932;2022-09-16T06:46:04;100862.87;;;19.49;58.18
65659;BME280;60181;53.258;6.932;2022-09-16T06:50:28;100862.19;;;19.50;58.15
65659;BME280;60181;53.258;6.932;2022-09-16T06:54:57;100861.54;;;19.50;58.19
65659;BME280;60181;53.258;6.932;2022-09-16T06:59:24;100858.79;;;19.51;58.16
65659;BME280;60181;53.258;6.932;2022-09-16T07:03:53;100857.39;;;19.51;58.07
65659;BME280;60181;53.258;6.932;2022-09-16T07:08:20;100855.44;;;19.53;57.94
65659;BME280;60181;53.258;6.932;2022-09-16T07:12:48;100853.45;;;19.55;57.98
65659;BME280;60181;53.258;6.932;2022-09-16T07:17:16;100852.19;;;19.56;58.01
65659;BME280;60181;53.258;6.932;2022-09-16T07:21:44;100852.40;;;19.57;57.99
65659;BME280;60181;53.258;6.932;2022-09-16T07:26:19;100854.17;;;19.58;57.95
65659;BME280;60181;53.258;6.932;2022-09-16T07:30:40;100855.98;;;19.59;58.03
65659;BME280;60181;53.258;6.932;2022-09-16T07:35:08;100859.14;;;19.59;58.08
65659;BME280;60181;53.258;6.932;2022-09-16T07:39:36;100861.64;;;19.59;58.02
65659;BME280;60181;53.258;6.932;2022-09-16T07:44:05;100862.45;;;19.61;57.90
65659;BME280;60181;53.258;6.932;2022-09-16T07:48:32;100862.19;;;19.63;57.81
65659;BME280;60181;53.258;6.932;2022-09-16T07:53:00;100861.90;;;19.66;57.44
65659;BME280;60181;53.258;6.932;2022-09-16T07:57:28;100862.36;;;19.78;56.32
65659;BME280;60181;53.258;6.932;2022-09-16T08:01:56;100863.95;;;19.91;55.98
65659;BME280;60181;53.258;6.932;2022-09-16T08:06:25;100866.22;;;20.07;55.64
65659;BME280;60181;53.258;6.932;2022-09-16T08:10:53;100867.61;;;20.24;54.92
65659;BME280;60181;53.258;6.932;2022-09-16T08:15:20;100869.08;;;20.41;54.75
65659;BME280;60181;53.258;6.932;2022-09-16T08:19:48;100870.75;;;20.56;54.73
65659;BME280;60181;53.258;6.932;2022-09-16T08:24:16;100870.31;;;20.69;54.74
65659;BME280;60181;53.258;6.932;2022-09-16T08:28:45;100869.90;;;20.80;54.84
65659;BME280;60181;53.258;6.932;2022-09-16T08:33:12;100867.17;;;20.89;54.77
65659;BME280;60181;53.258;6.932;2022-09-16T08:37:40;100866.06;;;20.98;54.68
65659;BME280;60181;53.258;6.932;2022-09-16T08:46:56;100867.35;;;21.12;54.70
65659;BME280;60181;53.258;6.932;2022-09-16T08:51:04;100867.29;;;21.18;54.78
65659;BME280;60181;53.258;6.932;2022-09-16T08:55:41;100867.47;;;21.21;54.84
65659;BME280;60181;53.258;6.932;2022-09-16T09:00:03;100868.24;;;21.25;54.85
65659;BME280;60181;53.258;6.932;2022-09-16T09:04:28;100869.84;;;21.25;55.46
65659;BME280;60181;53.258;6.932;2022-09-16T09:09:15;100871.14;;;21.20;55.62
65659;BME280;60181;53.258;6.932;2022-09-16T09:17:59;100875.30;;;21.10;55.80
65659;BME280;60181;53.258;6.932;2022-09-16T09:22:37;100878.56;;;21.08;56.06
65659;BME280;60181;53.258;6.932;2022-09-16T09:26:49;100880.61;;;21.01;56.65
65659;BME280;60181;53.258;6.932;2022-09-16T09:35:52;100880.97;;;20.98;55.98
65659;BME280;60181;53.258;6.932;2022-09-16T09:40:30;100882.95;;;20.98;55.83
65659;BME280;60181;53.258;6.932;2022-09-16T09:44:44;100885.36;;;20.99;55.87
65659;BME280;60181;53.258;6.932;2022-09-16T09:49:12;100889.59;;;21.00;55.68
65659;BME280;60181;53.258;6.932;2022-09-16T09:53:40;100892.88;;;21.03;55.55
65659;BME280;60181;53.258;6.932;2022-09-16T09:58:14;100894.62;;;21.04;55.97
65659;BME280;60181;53.258;6.932;2022-09-16T10:02:32;100895.54;;;21.03;55.86
65659;BME280;60181;53.258;6.932;2022-09-16T10:07:00;100893.50;;;21.01;56.26
65659;BME280;60181;53.258;6.932;2022-09-16T10:11:29;100891.36;;;20.99;56.22
65659;BME280;60181;53.258;6.932;2022-09-16T10:16:10;100887.88;;;20.98;56.21
65659;BME280;60181;53.258;6.932;2022-09-16T10:20:30;100883.96;;;20.97;56.24
65659;BME280;60181;53.258;6.932;2022-09-16T10:24:53;100880.98;;;20.96;56.36
65659;BME280;60181;53.258;6.932;2022-09-16T10:29:20;100880.53;;;20.93;56.60
65659;BME280;60181;53.258;6.932;2022-09-16T10:33:48;100881.65;;;20.90;56.53
65659;BME280;60181;53.258;6.932;2022-09-16T10:38:20;100882.01;;;20.89;56.50
65659;BME280;60181;53.258;6.932;2022-09-16T10:42:45;100882.19;;;20.88;56.54
65659;BME280;60181;53.258;6.932;2022-09-16T10:47:16;100882.19;;;20.86;56.67
65659;BME280;60181;53.258;6.932;2022-09-16T10:51:40;100880.81;;;20.85;56.67
65659;BME280;60181;53.258;6.932;2022-09-16T10:56:16;100876.97;;;20.85;56.71
65659;BME280;60181;53.258;6.932;2022-09-16T11:00:42;100874.98;;;20.84;56.76
65659;BME280;60181;53.258;6.932;2022-09-16T11:05:11;100874.16;;;20.84;56.64
65659;BME280;60181;53.258;6.932;2022-09-16T11:09:42;100872.58;;;20.83;56.73
65659;BME280;60181;53.258;6.932;2022-09-16T11:18:44;100869.03;;;20.82;56.73
65659;BME280;60181;53.258;6.932;2022-09-16T11:45:22;100859.61;;;20.82;56.79
65659;BME280;60181;53.258;6.932;2022-09-16T11:54:17;100857.39;;;20.80;57.00
65659;BME280;60181;53.258;6.932;2022-09-16T12:03:26;100858.61;;;20.77;57.10
65659;BME280;60181;53.258;6.932;2022-09-16T12:07:37;100855.63;;;20.75;57.06
65659;BME280;60181;53.258;6.932;2022-09-16T12:12:23;100853.97;;;20.74;57.22
65659;BME280;60181;53.258;6.932;2022-09-16T12:16:34;100852.48;;;20.72;57.31
65659;BME280;60181;53.258;6.932;2022-09-16T12:21:08;100852.27;;;20.70;57.43
65659;BME280;60181;53.258;6.932;2022-09-16T12:25:31;100852.70;;;20.68;57.44
65659;BME280;60181;53.258;6.932;2022-09-16T12:30:01;100851.39;;;20.66;57.46
65659;BME280;60181;53.258;6.932;2022-09-16T12:34:29;100849.16;;;20.64;57.44
65659;BME280;60181;53.258;6.932;2022-09-16T12:38:52;100847.19;;;20.62;57.54
65659;BME280;60181;53.258;6.932;2022-09-16T12:48:01;100847.89;;;20.59;57.57
65659;BME280;60181;53.258;6.932;2022-09-16T12:52:21;100851.58;;;20.58;57.58
65659;BME280;60181;53.258;6.932;2022-09-16T12:56:50;100852.69;;;20.56;57.54
65659;BME280;60181;53.258;6.932;2022-09-16T13:01:25;100852.34;;;20.56;57.45
65659;BME280;60181;53.258;6.932;2022-09-16T13:05:42;100851.45;;;20.56;57.43
65659;BME280;60181;53.258;6.932;2022-09-16T13:10:17;100850.36;;;20.56;57.49
65659;BME280;60181;53.258;6.932;2022-09-16T13:14:45;100849.77;;;20.56;57.60
65659;BME280;60181;53.258;6.932;2022-09-16T13:19:24;100851.34;;;20.56;57.42
65659;BME280;60181;53.258;6.932;2022-09-16T13:23:32;100852.95;;;20.56;57.44
65659;BME280;60181;53.258;6.932;2022-09-16T13:28:01;100855.35;;;20.56;57.44
65659;BME280;60181;53.258;6.932;2022-09-16T13:32:38;100858.01;;;20.55;57.60
65659;BME280;60181;53.258;6.932;2022-09-16T13:36:56;100860.69;;;20.54;57.56
65659;BME280;60181;53.258;6.932;2022-09-16T13:41:34;100862.84;;;20.54;57.48
65659;BME280;60181;53.258;6.932;2022-09-16T13:45:59;100864.53;;;20.53;57.59
65659;BME280;60181;53.258;6.932;2022-09-16T13:50:20;100863.28;;;20.52;57.58
65659;BME280;60181;53.258;6.932;2022-09-16T13:54:49;100862.89;;;20.51;57.73
65659;BME280;60181;53.258;6.932;2022-09-16T13:59:22;100862.74;;;20.49;57.85
65659;BME280;60181;53.258;6.932;2022-09-16T14:08:21;100853.30;;;20.47;57.75
65659;BME280;60181;53.258;6.932;2022-09-16T14:17:15;100842.99;;;20.45;57.88
65659;BME280;60181;53.258;6.932;2022-09-16T14:21:36;100837.52;;;20.44;57.96
65659;BME280;60181;53.258;6.932;2022-09-16T14:26:11;100834.88;;;20.42;58.16
65659;BME280;60181;53.258;6.932;2022-09-16T14:30:32;100832.58;;;20.41;58.11
65659;BME280;60181;53.258;6.932;2022-09-16T14:35:02;100829.93;;;20.39;58.20
65659;BME280;60181;53.258;6.932;2022-09-16T14:39:28;100832.37;;;20.36;58.39
65659;BME280;60181;53.258;6.932;2022-09-16T14:43:58;100834.56;;;20.35;58.29
65659;BME280;60181;53.258;6.932;2022-09-16T14:48:26;100833.65;;;20.33;58.42
65659;BME280;60181;53.258;6.932;2022-09-16T14:52:56;100830.10;;;20.32;58.36
65659;BME280;60181;53.258;6.932;2022-09-16T14:57:21;100826.25;;;20.32;58.17
65659;BME280;60181;53.258;6.932;2022-09-16T15:01:48;100822.83;;;20.34;58.01
65659;BME280;60181;53.258;6.932;2022-09-16T15:06:17;100820.65;;;20.36;57.93
65659;BME280;60181;53.258;6.932;2022-09-16T15:10:47;100819.64;;;20.37;58.16
65659;BME280;60181;53.258;6.932;2022-09-16T15:19:40;100821.20;;;20.31;58.68
65659;BME280;60181;53.258;6.932;2022-09-16T15:24:14;100823.07;;;20.28;58.72
65659;BME280;60181;53.258;6.932;2022-09-16T15:28:36;100823.11;;;20.24;58.86
65659;BME280;60181;53.258;6.932;2022-09-16T15:33:20;100824.55;;;20.21;58.91
65659;BME280;60181;53.258;6.932;2022-09-16T15:37:32;100825.17;;;20.19;58.97
65659;BME280;60181;53.258;6.932;2022-09-16T15:42:09;100826.05;;;20.16;59.05
65659;BME280;60181;53.258;6.932;2022-09-16T15:46:28;100824.49;;;20.13;59.10
65659;BME280;60181;53.258;6.932;2022-09-16T15:50:57;100821.53;;;20.11;59.15
65659;BME280;60181;53.258;6.932;2022-09-16T15:59:56;100813.51;;;20.06;59.15
65659;BME280;60181;53.258;6.932;2022-09-16T16:04:21;100813.67;;;20.05;59.19
65659;BME280;60181;53.258;6.932;2022-09-16T16:08:49;100817.53;;;20.03;59.24
65659;BME280;60181;53.258;6.932;2022-09-16T16:13:16;100814.56;;;20.02;59.30
65659;BME280;60181;53.258;6.932;2022-09-16T16:17:44;100813.16;;;20.00;59.38
65659;BME280;60181;53.258;6.932;2022-09-16T16:22:12;100811.50;;;19.99;59.34
65659;BME280;60181;53.258;6.932;2022-09-16T16:26:40;100813.51;;;19.98;59.33
65659;BME280;60181;53.258;6.932;2022-09-16T16:31:09;100816.35;;;19.97;59.41
65659;BME280;60181;53.258;6.932;2022-09-16T16:35:36;100820.59;;;19.95;59.48
65659;BME280;60181;53.258;6.932;2022-09-16T16:40:04;100823.27;;;19.94;59.44
65659;BME280;60181;53.258;6.932;2022-09-16T16:44:32;100827.59;;;19.93;59.50
65659;BME280;60181;53.258;6.932;2022-09-16T16:49:00;100828.94;;;19.92;59.48
65659;BME280;60181;53.258;6.932;2022-09-16T16:53:28;100829.11;;;19.91;59.56
65659;BME280;60181;53.258;6.932;2022-09-16T16:57:56;100830.55;;;19.90;59.53
65659;BME280;60181;53.258;6.932;2022-09-16T17:02:24;100832.39;;;19.89;59.58
65659;BME280;60181;53.258;6.932;2022-09-16T17:06:52;100833.47;;;19.89;59.55
65659;BME280;60181;53.258;6.932;2022-09-16T17:11:20;100839.03;;;19.88;59.59
65659;BME280;60181;53.258;6.932;2022-09-16T17:15:48;100840.20;;;19.87;59.64
65659;BME280;60181;53.258;6.932;2022-09-16T17:20:16;100838.95;;;19.86;59.64
65659;BME280;60181;53.258;6.932;2022-09-16T17:24:43;100838.70;;;19.85;59.65
65659;BME280;60181;53.258;6.932;2022-09-16T17:29:11;100837.95;;;19.84;59.88
65659;BME280;60181;53.258;6.932;2022-09-16T17:33:39;100837.64;;;19.84;59.83
65659;BME280;60181;53.258;6.932;2022-09-16T17:38:08;100836.65;;;19.84;59.70
65659;BME280;60181;53.258;6.932;2022-09-16T17:42:35;100834.90;;;19.83;59.78
65659;BME280;60181;53.258;6.932;2022-09-16T17:47:04;100835.82;;;19.82;59.80
65659;BME280;60181;53.258;6.932;2022-09-16T17:51:32;100839.42;;;19.82;59.81
65659;BME280;60181;53.258;6.932;2022-09-16T17:56:03;100843.91;;;19.81;59.86
65659;BME280;60181;53.258;6.932;2022-09-16T18:00:27;100845.15;;;19.80;59.88
65659;BME280;60181;53.258;6.932;2022-09-16T18:04:55;100848.08;;;19.80;60.05
65659;BME280;60181;53.258;6.932;2022-09-16T18:09:23;100854.72;;;19.80;59.76
65659;BME280;60181;53.258;6.932;2022-09-16T18:13:52;100860.71;;;19.80;59.60
65659;BME280;60181;53.258;6.932;2022-09-16T18:18:19;100864.34;;;19.79;59.64
65659;BME280;60181;53.258;6.932;2022-09-16T18:22:47;100865.30;;;19.78;59.68
65659;BME280;60181;53.258;6.932;2022-09-16T18:27:15;100866.96;;;19.77;59.63
65659;BME280;60181;53.258;6.932;2022-09-16T18:31:44;100868.06;;;19.76;59.70
65659;BME280;60181;53.258;6.932;2022-09-16T18:36:13;100867.47;;;19.75;59.68
65659;BME280;60181;53.258;6.932;2022-09-16T18:40:39;100866.49;;;19.74;59.66
65659;BME280;60181;53.258;6.932;2022-09-16T18:45:08;100865.41;;;19.73;59.65
65659;BME280;60181;53.258;6.932;2022-09-16T18:49:35;100864.08;;;19.72;59.77
65659;BME280;60181;53.258;6.932;2022-09-16T18:54:09;100864.69;;;19.72;59.71
65659;BME280;60181;53.258;6.932;2022-09-16T18:58:31;100866.60;;;19.71;59.76
65659;BME280;60181;53.258;6.932;2022-09-16T19:02:59;100873.93;;;19.70;59.71
65659;BME280;60181;53.258;6.932;2022-09-16T19:07:27;100878.83;;;19.69;59.79
65659;BME280;60181;53.258;6.932;2022-09-16T19:11:55;100884.97;;;19.69;59.71
65659;BME280;60181;53.258;6.932;2022-09-16T19:16:23;100888.95;;;19.68;59.85
65659;BME280;60181;53.258;6.932;2022-09-16T19:20:51;100891.06;;;19.67;59.80
65659;BME280;60181;53.258;6.932;2022-09-16T19:25:19;100890.91;;;19.66;59.86
65659;BME280;60181;53.258;6.932;2022-09-16T19:29:47;100892.72;;;19.66;59.81
65659;BME280;60181;53.258;6.932;2022-09-16T19:34:16;100894.56;;;19.65;59.88
65659;BME280;60181;53.258;6.932;2022-09-16T19:38:44;100899.81;;;19.65;59.91
65659;BME280;60181;53.258;6.932;2022-09-16T19:43:11;100901.79;;;19.64;59.92
65659;BME280;60181;53.258;6.932;2022-09-16T19:47:39;100902.81;;;19.64;59.90
65659;BME280;60181;53.258;6.932;2022-09-16T19:52:07;100903.72;;;19.63;59.94
65659;BME280;60181;53.258;6.932;2022-09-16T19:56:35;100907.79;;;19.63;59.86
65659;BME280;60181;53.258;6.932;2022-09-16T20:01:04;100913.70;;;19.63;59.90
65659;BME280;60181;53.258;6.932;2022-09-16T20:05:31;100916.19;;;19.62;59.91
65659;BME280;60181;53.258;6.932;2022-09-16T20:09:59;100917.03;;;19.61;59.89
65659;BME280;60181;53.258;6.932;2022-09-16T20:14:27;100919.19;;;19.61;60.16
65659;BME280;60181;53.258;6.932;2022-09-16T20:18:55;100922.25;;;19.61;59.95
65659;BME280;60181;53.258;6.932;2022-09-16T20:23:23;100925.57;;;19.61;59.99
65659;BME280;60181;53.258;6.932;2022-09-16T20:27:51;100928.67;;;19.60;60.04
65659;BME280;60181;53.258;6.932;2022-09-16T20:32:19;100932.81;;;19.60;60.39
65659;BME280;60181;53.258;6.932;2022-09-16T20:36:47;100938.14;;;19.61;60.08
65659;BME280;60181;53.258;6.932;2022-09-16T20:41:17;100944.11;;;19.62;58.19
65659;BME280;60181;53.258;6.932;2022-09-16T20:45:43;100949.08;;;19.62;58.63
65659;BME280;60181;53.258;6.932;2022-09-16T20:50:11;100954.26;;;19.61;57.78
65659;BME280;60181;53.258;6.932;2022-09-16T20:54:39;100959.41;;;19.60;58.07
65659;BME280;60181;53.258;6.932;2022-09-16T20:59:08;100964.90;;;19.59;57.98
65659;BME280;60181;53.258;6.932;2022-09-16T21:03:35;100970.04;;;19.58;56.92
65659;BME280;60181;53.258;6.932;2022-09-16T21:08:03;100974.55;;;19.56;56.77
65659;BME280;60181;53.258;6.932;2022-09-16T21:12:31;100979.79;;;19.54;56.47
65659;BME280;60181;53.258;6.932;2022-09-16T21:16:59;100984.37;;;19.53;56.21
65659;BME280;60181;53.258;6.932;2022-09-16T21:21:27;100989.87;;;19.52;56.15
65659;BME280;60181;53.258;6.932;2022-09-16T21:26:00;100995.03;;;19.51;56.34
65659;BME280;60181;53.258;6.932;2022-09-16T21:30:23;100999.19;;;19.50;55.94
65659;BME280;60181;53.258;6.932;2022-09-16T21:34:51;101003.94;;;19.48;55.79
65659;BME280;60181;53.258;6.932;2022-09-16T21:39:19;101009.07;;;19.47;55.67
65659;BME280;60181;53.258;6.932;2022-09-16T21:43:48;101013.08;;;19.45;55.89
65659;BME280;60181;53.258;6.932;2022-09-16T21:48:15;101016.31;;;19.43;55.18
65659;BME280;60181;53.258;6.932;2022-09-16T21:52:43;101018.83;;;19.42;55.35
65659;BME280;60181;53.258;6.932;2022-09-16T21:57:11;101023.56;;;19.41;55.54
65659;BME280;60181;53.258;6.932;2022-09-16T22:01:39;101029.21;;;19.40;55.07
65659;BME280;60181;53.258;6.932;2022-09-16T22:06:09;101035.38;;;19.39;55.32
65659;BME280;60181;53.258;6.932;2022-09-16T22:10:35;101040.20;;;19.38;54.93
65659;BME280;60181;53.258;6.932;2022-09-16T22:15:03;101045.43;;;19.36;54.79
65659;BME280;60181;53.258;6.932;2022-09-16T22:19:31;101049.44;;;19.35;55.18
65659;BME280;60181;53.258;6.932;2022-09-16T22:24:00;101052.91;;;19.33;55.15
65659;BME280;60181;53.258;6.932;2022-09-16T22:28:27;101056.76;;;19.31;55.36
65659;BME280;60181;53.258;6.932;2022-09-16T22:32:55;101057.67;;;19.30;55.28
65659;BME280;60181;53.258;6.932;2022-09-16T22:37:23;101056.58;;;19.28;55.40
65659;BME280;60181;53.258;6.932;2022-09-16T22:41:51;101055.86;;;19.27;55.57
65659;BME280;60181;53.258;6.932;2022-09-16T22:46:20;101055.62;;;19.27;55.82
65659;BME280;60181;53.258;6.932;2022-09-16T22:50:54;101055.27;;;19.26;55.78
65659;BME280;60181;53.258;6.932;2022-09-16T22:55:15;101055.03;;;19.26;55.80
65659;BME280;60181;53.258;6.932;2022-09-16T22:59:43;101054.36;;;19.26;55.81
65659;BME280;60181;53.258;6.932;2022-09-16T23:04:11;101053.36;;;19.26;56.09
65659;BME280;60181;53.258;6.932;2022-09-16T23:08:40;101052.95;;;19.26;55.59
65659;BME280;60181;53.258;6.932;2022-09-16T23:13:07;101052.36;;;19.27;55.54
65659;BME280;60181;53.258;6.932;2022-09-16T23:17:35;101052.01;;;19.28;55.57
65659;BME280;60181;53.258;6.932;2022-09-16T23:22:03;101050.37;;;19.27;55.73
65659;BME280;60181;53.258;6.932;2022-09-16T23:26:32;101048.04;;;19.26;55.36
65659;BME280;60181;53.258;6.932;2022-09-16T23:31:06;101045.56;;;19.25;54.30
65659;BME280;60181;53.258;6.932;2022-09-16T23:35:27;101043.59;;;19.23;54.10
65659;BME280;60181;53.258;6.932;2022-09-16T23:39:55;101043.91;;;19.22;53.80
65659;BME280;60181;53.258;6.932;2022-09-16T23:44:23;101048.32;;;19.20;53.34
65659;BME280;60181;53.258;6.932;2022-09-16T23:48:51;101050.24;;;19.17;53.48
65659;BME280;60181;53.258;6.932;2022-09-16T23:53:19;101050.65;;;19.15;53.64
65659;BME280;60181;53.258;6.932;2022-09-16T23:57:47;101050.58;;;19.14;53.74
